Time;durP1;ratioP1;P1;durP2;ratioP2;P2;SDS_P1;SDS_P2;PMS_P1;PMS_P2;Temp;Humidity;BMP_temperature;BMP_pressure;BME280_temperature;BME280_humidity;BME280_pressure;Samples;Min_cycle;Max_cycle;Signal;HPM_P1;HPM_P2
2022/01/12 00:02:06;;;;;;;;;;;;;;;17.03;43.51;103460.25;5084706;28;19976;-44
2022/01/12 00:04:32;;;;;;;;;;;;;;;17.02;43.54;103455.84;5085046;28;19913;-43
2022/01/12 00:06:57;;;;;;;;;;;;;;;17.02;43.69;103455.84;5084720;28;19913;-45
2022/01/12 00:09:22;;;;;;;;;;;;;;;17.01;43.67;103463.03;5075236;28;19955;-46
2022/01/12 00:11:47;;;;;;;;;;;;;;;17.01;43.61;103470.25;5084769;28;20011;-43
2022/01/12 00:14:12;;;;;;;;;;;;;;;17.01;43.58;103467.56;5084686;28;19927;-43
2022/01/12 00:16:39;;;;;;;;;;;;;;;17.01;43.66;103473.78;5084619;28;19924;-45
2022/01/12 00:19:04;;;;;;;;;;;;;;;17.00;43.59;103477.44;5084633;28;20011;-43
2022/01/12 00:21:29;;;;;;;;;;;;;;;16.99;43.44;103481.06;5082904;28;20367;-43
2022/01/12 00:23:54;;;;;;;;;;;;;;;16.98;43.42;103482.88;5084511;28;19943;-43
2022/01/12 00:34:25;;;;;;;;;;;;;;;16.95;43.49;103488.47;5084744;28;19962;-45
2022/01/12 00:36:50;;;;;;;;;;;;;;;16.94;43.58;103489.41;5083822;28;19920;-47
2022/01/12 00:39:16;;;;;;;;;;;;;;;16.94;43.49;103493.91;5084740;28;19920;-43
2022/01/12 00:41:41;;;;;;;;;;;;;;;16.93;43.57;103495.75;5084455;28;19917;-45
2022/01/12 00:44:09;;;;;;;;;;;;;;;16.91;43.48;103484.25;5065440;28;19913;-45
2022/01/12 00:46:35;;;;;;;;;;;;;;;16.91;43.59;103472.63;5063739;28;19917;-45
2022/01/12 00:49:00;;;;;;;;;;;;;;;16.90;43.54;103477.13;5056703;28;19924;-43
2022/01/12 00:51:26;;;;;;;;;;;;;;;16.89;43.56;103470.03;5083485;28;19912;-44
2022/01/12 00:53:52;;;;;;;;;;;;;;;16.89;43.62;103461.97;5084220;28;19912;-47
2022/01/12 00:56:18;;;;;;;;;;;;;;;16.88;43.66;103452.16;5082866;28;19939;-45
2022/01/12 00:58:43;;;;;;;;;;;;;;;16.88;43.61;103454.00;5066186;28;19912;-43
2022/01/12 01:01:08;;;;;;;;;;;;;;;16.87;43.56;103465.72;5083358;28;19916;-45
2022/01/12 01:03:34;;;;;;;;;;;;;;;16.87;43.49;103468.41;5083831;28;19913;-45
2022/01/12 01:05:59;;;;;;;;;;;;;;;16.85;43.74;103463.09;5083227;28;19993;-44
2022/01/12 01:08:24;;;;;;;;;;;;;;;16.84;43.62;103464.06;5084042;28;19942;-45
2022/01/12 01:10:51;;;;;;;;;;;;;;;16.83;43.66;103469.53;5083658;28;19912;-44
2022/01/12 01:13:23;;;;;;;;;;;;;;;16.83;43.65;103482.97;5083512;28;19921;-44
2022/01/12 01:26:31;;;;;;;;;;;;;;;16.78;43.70;103491.31;5083385;28;19920;-43
2022/01/12 01:28:56;;;;;;;;;;;;;;;16.78;43.59;103487.75;5065426;28;19917;-42
2022/01/12 01:31:28;;;;;;;;;;;;;;;16.77;43.65;103484.19;5082984;28;19912;-44
2022/01/12 01:33:53;;;;;;;;;;;;;;;16.77;43.68;103488.69;5065302;28;19966;-43
2022/01/12 01:36:19;;;;;;;;;;;;;;;16.75;43.59;103480.75;5082610;28;19936;-44
2022/01/12 01:38:44;;;;;;;;;;;;;;;16.73;43.58;103486.19;5083388;28;19913;-43
2022/01/12 01:41:09;;;;;;;;;;;;;;;16.73;43.55;103480.81;5083109;28;19913;-43
2022/01/12 01:54:12;;;;;;;;;;;;;;;16.70;43.64;103488.19;5083122;28;20583;-44
2022/01/12 01:56:37;;;;;;;;;;;;;;;16.69;43.72;103489.13;5082805;28;19917;-46
2022/01/12 01:59:02;;;;;;;;;;;;;;;16.68;43.67;103488.25;5083015;28;19919;-44
2022/01/12 02:01:28;;;;;;;;;;;;;;;16.68;43.70;103492.78;5082352;28;19959;-43
2022/01/12 02:03:55;;;;;;;;;;;;;;;16.67;43.74;103497.28;5083067;28;19966;-45
2022/01/12 02:06:20;;;;;;;;;;;;;;;16.66;43.79;103495.56;5082495;28;19913;-45
2022/01/12 02:08:45;;;;;;;;;;;;;;;16.66;43.60;103502.75;5064826;28;20526;-44
2022/01/12 02:11:10;;;;;;;;;;;;;;;16.64;43.68;103500.13;5082784;28;19912;-44
2022/01/12 02:13:36;;;;;;;;;;;;;;;16.64;43.66;103505.50;5082743;28;19920;-48
2022/01/12 02:16:01;;;;;;;;;;;;;;;16.64;43.73;103510.88;5081357;28;19913;-47
2022/01/12 02:39:47;;;;;;;;;;;;;;;16.59;43.60;103563.16;5082177;28;19924;-48
2022/01/12 02:40:05;;;;;;;;;;;;;;;16.59;43.75;103568.53;5082620;28;20003;-45
2022/01/12 02:42:30;;;;;;;;;;;;;;;16.58;43.65;103569.47;5064388;28;19962;-43
2022/01/12 02:55:53;;;;;;;;;;;;;;;16.55;43.85;103612.63;5082528;28;19970;-45
2022/01/12 02:58:18;;;;;;;;;;;;;;;16.55;43.48;103620.69;5043998;28;20027;-44
2022/01/12 03:03:22;;;;;;;;;;;;;;;16.54;43.78;103617.13;5082932;28;19913;-44
2022/01/12 03:05:56;;;;;;;;;;;;;;;16.53;43.75;103615.41;5082048;28;19912;-46
2022/01/12 03:08:24;;;;;;;;;;;;;;;16.52;43.80;103607.41;5082778;28;19918;-46
2022/01/12 03:10:49;;;;;;;;;;;;;;;16.52;43.68;103604.72;5083005;28;20395;-48
2022/01/12 03:13:14;;;;;;;;;;;;;;;16.50;43.72;103599.47;5085950;28;19921;-44
2022/01/12 03:15:40;;;;;;;;;;;;;;;16.49;43.78;103598.59;5085970;28;19913;-43
2022/01/12 03:18:06;;;;;;;;;;;;;;;16.48;43.81;103598.66;5085761;28;19921;-46
2022/01/12 03:20:31;;;;;;;;;;;;;;;16.47;43.75;103589.75;5084854;28;19923;-46
2022/01/12 03:22:56;;;;;;;;;;;;;;;16.47;43.78;103586.19;5086133;28;19977;-43
2022/01/12 03:25:21;;;;;;;;;;;;;;;16.47;43.72;103588.88;5085840;28;19937;-46
2022/01/12 03:27:46;;;;;;;;;;;;;;;16.48;43.64;103582.56;5085785;28;19913;-44
2022/01/12 03:30:12;;;;;;;;;;;;;;;16.46;43.79;103596.06;5085912;28;19912;-46
2022/01/12 03:32:44;;;;;;;;;;;;;;;16.45;43.79;103594.34;5085371;28;19980;-45
2022/01/12 03:35:23;;;;;;;;;;;;;;;16.45;43.78;103593.50;5067574;28;19938;-43
2022/01/12 03:40:32;;;;;;;;;;;;;;;16.44;43.59;103573.84;5085759;28;19935;-46
2022/01/12 03:42:57;;;;;;;;;;;;;;;16.43;43.74;103580.13;5077544;28;19913;-43
2022/01/12 03:45:22;;;;;;;;;;;;;;;16.42;43.62;103597.19;5065507;28;19919;-46
2022/01/12 03:47:47;;;;;;;;;;;;;;;16.43;43.79;103606.97;5065292;28;19920;-46
2022/01/12 03:50:13;;;;;;;;;;;;;;;16.41;43.65;103606.22;5076469;28;19935;-46
2022/01/12 03:52:38;;;;;;;;;;;;;;;16.42;43.72;103604.41;5084821;28;19959;-42
2022/01/12 03:55:03;;;;;;;;;;;;;;;16.41;43.81;103614.28;5085313;28;20367;-46
2022/01/12 03:57:28;;;;;;;;;;;;;;;16.41;43.82;103600.00;5085336;28;19956;-45
2022/01/12 03:59:53;;;;;;;;;;;;;;;16.41;43.69;103600.00;5085358;28;19913;-43
2022/01/12 04:02:19;;;;;;;;;;;;;;;16.41;43.72;103614.28;5084915;28;20467;-46
2022/01/12 04:05:07;;;;;;;;;;;;;;;16.40;43.78;103601.81;5084953;28;20374;-44
2022/01/12 04:10:13;;;;;;;;;;;;;;;16.39;43.82;103609.94;5085156;28;19919;-45
2022/01/12 04:12:38;;;;;;;;;;;;;;;16.39;43.67;103623.34;5084791;28;19912;-43
2022/01/12 04:15:04;;;;;;;;;;;;;;;16.37;43.71;103620.78;5084782;28;19916;-43
2022/01/12 04:17:29;;;;;;;;;;;;;;;16.37;43.72;103617.22;5084544;28;19920;-43
2022/01/12 04:19:54;;;;;;;;;;;;;;;16.36;43.68;103618.19;5084716;28;19916;-42
2022/01/12 04:25:03;;;;;;;;;;;;;;;16.35;43.65;103629.84;5084296;28;19923;-46
2022/01/12 04:27:29;;;;;;;;;;;;;;;16.34;43.66;103628.97;5084732;28;19912;-46
2022/01/12 04:29:54;;;;;;;;;;;;;;;16.34;43.67;103618.25;5083310;28;19912;-44
2022/01/12 04:32:21;;;;;;;;;;;;;;;16.34;43.79;103609.31;5083953;28;19924;-45
2022/01/12 04:34:46;;;;;;;;;;;;;;;16.34;43.63;103609.31;5084496;28;19947;-44
2022/01/12 04:37:11;;;;;;;;;;;;;;;16.34;43.77;103601.28;5083905;28;19920;-46
2022/01/12 04:39:36;;;;;;;;;;;;;;;16.34;43.79;103614.69;5084335;28;19942;-48
2022/01/12 04:42:01;;;;;;;;;;;;;;;16.33;43.79;103600.41;5083862;28;19919;-43
2022/01/12 04:44:27;;;;;;;;;;;;;;;16.32;43.81;103600.50;5064277;28;19913;-46
2022/01/12 04:47:04;;;;;;;;;;;;;;;16.32;43.65;103598.69;5063901;28;19913;-45
2022/01/12 04:52:10;;;;;;;;;;;;;;;16.31;43.62;103605.03;5067550;28;19913;-44
2022/01/12 04:54:35;;;;;;;;;;;;;;;16.31;43.84;103613.06;5063975;28;19916;-46
2022/01/12 04:57:00;;;;;;;;;;;;;;;16.31;43.84;103610.38;5063996;28;20366;-45
2022/01/12 04:59:26;;;;;;;;;;;;;;;16.31;43.74;103606.81;5075182;28;20164;-44
2022/01/12 05:01:57;;;;;;;;;;;;;;;16.31;43.85;103609.50;5083550;28;20331;-44
2022/01/12 05:12:44;;;;;;;;;;;;;;;16.31;43.75;103613.06;5083778;28;19939;-44
2022/01/12 05:12:51;;;;;;;;;;;;;;;16.21;43.81;103604.63;5083503;28;20001;-44
2022/01/12 05:15:25;;;;;;;;;;;;;;;16.31;43.73;103617.53;5083701;28;19963;-43
2022/01/12 05:17:50;;;;;;;;;;;;;;;16.32;43.74;103622.00;5085809;28;19920;-43
2022/01/12 05:20:17;;;;;;;;;;;;;;;16.32;43.73;103627.34;5083148;28;21362;-44
2022/01/12 05:22:42;;;;;;;;;;;;;;;16.32;43.72;103636.28;5083086;28;19955;-48
2022/01/12 05:25:07;;;;;;;;;;;;;;;16.33;43.83;103629.09;5083240;28;19959;-46
2022/01/12 05:27:32;;;;;;;;;;;;;;;16.32;43.75;103622.84;5083647;28;19912;-45
2022/01/12 05:29:57;;;;;;;;;;;;;;;16.33;43.74;103631.78;5083475;28;20369;-42
2022/01/12 05:32:25;;;;;;;;;;;;;;;16.33;43.80;103623.72;5082804;28;19913;-44
2022/01/12 05:34:50;;;;;;;;;;;;;;;16.33;43.83;103624.56;5082719;28;19962;-45
2022/01/12 05:37:15;;;;;;;;;;;;;;;16.33;43.79;103624.56;5082777;28;19916;-45
2022/01/12 05:39:40;;;;;;;;;;;;;;;16.34;43.83;103630.81;5083389;28;19917;-43
2022/01/12 05:42:06;;;;;;;;;;;;;;;16.33;43.61;103629.94;5065185;28;19916;-43
2022/01/12 05:44:31;;;;;;;;;;;;;;;16.34;43.67;103634.34;5083188;28;19916;-43
2022/01/12 05:46:56;;;;;;;;;;;;;;;16.34;43.84;103639.72;5082968;28;19913;-43
2022/01/12 05:49:34;;;;;;;;;;;;;;;16.35;43.65;103641.44;5083052;28;19916;-46
2022/01/12 05:51:59;;;;;;;;;;;;;;;16.36;43.68;103642.34;5082620;28;19912;-47
2022/01/12 05:54:24;;;;;;;;;;;;;;;16.36;43.76;103651.25;5083187;28;20498;-46
2022/01/12 05:56:50;;;;;;;;;;;;;;;16.37;43.81;103652.13;5082626;28;19917;-43
2022/01/12 05:59:15;;;;;;;;;;;;;;;16.36;43.67;103656.63;5083066;28;19916;-45
2022/01/12 06:01:40;;;;;;;;;;;;;;;16.36;43.79;103659.31;5082679;28;19912;-45
2022/01/12 06:04:05;;;;;;;;;;;;;;;16.37;43.79;103669.09;5082844;28;19912;-45
2022/01/12 06:06:30;;;;;;;;;;;;;;;16.37;43.83;103666.41;5085928;28;19919;-44
2022/01/12 06:08:55;;;;;;;;;;;;;;;16.37;43.69;103660.19;5097117;28;19918;-45
2022/01/12 06:11:23;;;;;;;;;;;;;;;16.37;43.65;103660.19;5082653;28;19912;-45
2022/01/12 06:13:48;;;;;;;;;;;;;;;16.38;43.69;103669.97;5082600;28;19970;-44
2022/01/12 06:16:13;;;;;;;;;;;;;;;16.37;43.70;103673.59;5082917;28;20320;-45
2022/01/12 06:18:38;;;;;;;;;;;;;;;16.37;43.63;103678.97;5082756;28;19924;-44
2022/01/12 06:21:03;;;;;;;;;;;;;;;16.37;43.94;103679.84;5081958;28;19921;-43
2022/01/12 06:23:28;;;;;;;;;;;;;;;16.38;43.69;103678.03;5082742;28;19988;-43
2022/01/12 06:25:53;;;;;;;;;;;;;;;16.38;43.70;103676.19;5082710;28;19965;-45
2022/01/12 06:33:30;;;;;;;;;;;;;;;16.40;43.57;103684.19;5082232;28;19919;-46
2022/01/12 06:35:56;;;;;;;;;;;;;;;16.39;43.66;103677.91;5046002;28;19932;-46
2022/01/12 06:38:21;;;;;;;;;;;;;;;16.40;43.81;103690.41;5062175;28;19921;-46
2022/01/12 06:40:47;;;;;;;;;;;;;;;16.41;43.67;103693.97;5062219;28;19919;-47
2022/01/12 06:43:12;;;;;;;;;;;;;;;16.42;43.74;103701.06;5070553;28;19958;-46
2022/01/12 06:45:39;;;;;;;;;;;;;;;16.42;43.78;103706.44;5075609;28;19970;-47
2022/01/12 06:48:04;;;;;;;;;;;;;;;16.42;43.67;103715.34;5048314;28;19956;-46
2022/01/12 06:50:29;;;;;;;;;;;;;;;16.44;43.86;103712.59;5065471;28;20387;-45
2022/01/12 06:52:54;;;;;;;;;;;;;;;16.44;43.73;103705.41;5065906;28;19919;-46
2022/01/12 06:55:19;;;;;;;;;;;;;;;16.45;43.72;103712.50;5080872;28;20047;-46
2022/01/12 06:57:45;;;;;;;;;;;;;;;16.45;43.75;103709.81;5080216;28;19931;-47
2022/01/12 07:00:10;;;;;;;;;;;;;;;16.45;43.74;103714.34;5083375;28;19968;-46
2022/01/12 07:02:35;;;;;;;;;;;;;;;16.46;43.89;103724.13;5076968;28;19923;-46
2022/01/12 07:05:00;;;;;;;;;;;;;;;16.46;43.90;103726.81;5084062;28;19927;-44
2022/01/12 07:07:25;;;;;;;;;;;;;;;16.47;43.88;103737.44;5065370;28;20369;-45
2022/01/12 07:09:51;;;;;;;;;;;;;;;16.48;43.75;103728.47;5078032;28;19919;-46
2022/01/12 07:12:16;;;;;;;;;;;;;;;16.49;43.92;103743.63;5079180;28;19916;-46
2022/01/12 07:14:42;;;;;;;;;;;;;;;16.50;43.97;103747.16;5071468;28;19928;-45
2022/01/12 07:17:08;;;;;;;;;;;;;;;16.50;44.07;103744.50;5078928;28;19948;-46
2022/01/12 07:19:33;;;;;;;;;;;;;;;16.51;43.87;103746.22;5072153;28;19938;-46
2022/01/12 07:21:58;;;;;;;;;;;;;;;16.52;44.03;103747.94;5071727;28;19917;-45
2022/01/12 07:24:23;;;;;;;;;;;;;;;16.53;44.12;103749.69;5082065;28;20459;-45
2022/01/12 07:26:48;;;;;;;;;;;;;;;16.54;44.05;103751.44;5082482;28;19934;-43
2022/01/12 07:29:13;;;;;;;;;;;;;;;16.59;44.17;103759.22;5079848;28;19920;-44
2022/01/12 07:31:39;;;;;;;;;;;;;;;16.63;44.13;103761.66;5074786;28;19916;-44
2022/01/12 07:34:04;;;;;;;;;;;;;;;16.68;44.00;103764.94;5068209;28;19938;-46
2022/01/12 07:36:29;;;;;;;;;;;;;;;16.73;43.97;103772.78;5073689;28;20512;-47
2022/01/12 07:38:55;;;;;;;;;;;;;;;16.77;44.02;103781.56;5080692;28;19938;-43
2022/01/12 07:41:21;;;;;;;;;;;;;;;16.82;43.83;103790.22;5077423;28;19913;-44
2022/01/12 07:43:46;;;;;;;;;;;;;;;16.84;43.84;103794.56;5081686;28;19919;-43
2022/01/12 07:46:11;;;;;;;;;;;;;;;16.87;43.82;103806.97;5084929;28;20351;-43
2022/01/12 07:48:36;;;;;;;;;;;;;;;16.89;43.99;103797.00;5084695;28;19951;-45
2022/01/12 07:51:01;;;;;;;;;;;;;;;16.91;43.87;103795.97;5076109;28;19913;-45
2022/01/12 07:53:26;;;;;;;;;;;;;;;16.94;43.89;103805.66;5073225;28;20076;-44
2022/01/12 07:55:51;;;;;;;;;;;;;;;16.95;43.77;103802.06;5080324;28;19913;-45
2022/01/12 07:58:17;;;;;;;;;;;;;;;16.96;43.91;103809.16;5081468;28;19916;-45
2022/01/12 08:00:42;;;;;;;;;;;;;;;16.98;43.90;103809.94;5084589;28;19926;-45
2022/01/12 08:03:07;;;;;;;;;;;;;;;16.99;43.90;103815.25;5084306;28;20019;-47
2022/01/12 08:05:32;;;;;;;;;;;;;;;17.01;43.81;103803.53;5084198;28;19981;-47
2022/01/12 08:07:58;;;;;;;;;;;;;;;17.02;43.72;103803.44;5076670;28;19917;-43
2022/01/12 08:10:24;;;;;;;;;;;;;;;17.04;43.83;103811.44;5084506;28;19926;-44
2022/01/12 08:12:49;;;;;;;;;;;;;;;17.04;43.99;103811.44;5084000;28;19951;-45
2022/01/12 08:15:14;;;;;;;;;;;;;;;17.06;43.78;103814.88;5084695;28;19909;-45
2022/01/12 08:17:39;;;;;;;;;;;;;;;17.05;43.87;103814.00;5083995;28;19924;-48
2022/01/12 08:20:05;;;;;;;;;;;;;;;17.07;43.86;103808.53;5084716;28;19912;-45
2022/01/12 08:22:30;;;;;;;;;;;;;;;17.08;43.85;103815.69;5083968;28;19918;-45
2022/01/12 08:24:56;;;;;;;;;;;;;;;17.10;43.79;103811.06;5084462;28;19923;-45
2022/01/12 08:27:21;;;;;;;;;;;;;;;17.10;43.67;103817.31;5084629;28;19912;-42
2022/01/12 08:29:46;;;;;;;;;;;;;;;17.11;43.64;103816.34;5084588;28;19917;-45
2022/01/12 08:32:11;;;;;;;;;;;;;;;17.11;43.70;103812.78;5084316;28;19912;-45
2022/01/12 08:34:37;;;;;;;;;;;;;;;17.14;43.64;103816.19;5084370;28;19936;-43
2022/01/12 08:37:02;;;;;;;;;;;;;;;17.15;43.71;103812.53;5083671;28;19927;-43
2022/01/12 08:39:28;;;;;;;;;;;;;;;17.17;43.62;103820.53;5079406;28;19917;-43
2022/01/12 08:41:53;;;;;;;;;;;;;;;17.19;43.42;103822.16;5083016;28;19916;-46
2022/01/12 08:44:18;;;;;;;;;;;;;;;17.21;43.45;103824.78;5083704;28;19916;-44
2022/01/12 08:46:43;;;;;;;;;;;;;;;17.21;43.47;103841.78;5084148;28;19916;-47
2022/01/12 08:49:09;;;;;;;;;;;;;;;17.22;43.38;103845.34;5084044;28;19916;-46
2022/01/12 08:51:34;;;;;;;;;;;;;;;17.23;43.53;103842.53;5083230;28;20007;-45
2022/01/12 08:53:59;;;;;;;;;;;;;;;17.23;43.38;103850.63;5083912;28;19959;-45
2022/01/12 08:56:24;;;;;;;;;;;;;;;17.26;43.35;103856.78;5083709;28;19935;-49
2022/01/12 08:58:50;;;;;;;;;;;;;;;17.26;43.42;103862.16;5083771;28;20003;-43
2022/01/12 09:01:15;;;;;;;;;;;;;;;17.26;43.27;103865.72;5083716;28;19939;-42
2022/01/12 09:03:40;;;;;;;;;;;;;;;17.28;43.32;103865.63;5080222;28;19920;-46
2022/01/12 09:06:05;;;;;;;;;;;;;;;17.26;43.29;103865.72;5074134;28;19921;-47
2022/01/12 09:08:31;;;;;;;;;;;;;;;17.29;43.50;103876.31;5058840;28;19917;-44
2022/01/12 09:10:57;;;;;;;;;;;;;;;17.29;43.30;103881.69;5083684;28;19916;-46
2022/01/12 09:13:22;;;;;;;;;;;;;;;17.30;43.33;103887.94;5083212;28;19920;-48
2022/01/12 09:15:47;;;;;;;;;;;;;;;17.31;43.38;103897.72;5083445;28;19912;-45
2022/01/12 09:18:12;;;;;;;;;;;;;;;17.32;43.28;103891.38;5083323;28;19938;-43
2022/01/12 09:20:37;;;;;;;;;;;;;;;17.33;43.22;103890.44;5082723;28;19923;-43
2022/01/12 09:23:03;;;;;;;;;;;;;;;17.33;43.18;103893.13;5083426;28;20357;-43
2022/01/12 09:25:28;;;;;;;;;;;;;;;17.34;43.20;103906.50;5083361;28;19912;-44
2022/01/12 09:27:54;;;;;;;;;;;;;;;17.33;43.15;103910.16;5065419;28;19916;-46
2022/01/12 09:30:19;;;;;;;;;;;;;;;17.35;43.09;103923.50;5083444;28;19913;-43
2022/01/12 09:32:44;;;;;;;;;;;;;;;17.35;43.27;103921.69;5082920;28;19912;-43
2022/01/12 09:35:10;;;;;;;;;;;;;;;17.36;43.09;103915.34;5078287;28;19912;-45
2022/01/12 09:37:35;;;;;;;;;;;;;;;17.38;43.21;103915.28;5063461;28;19924;-46
2022/01/12 09:40:00;;;;;;;;;;;;;;;17.39;43.45;103915.19;5083120;28;19912;-45
2022/01/12 09:42:25;;;;;;;;;;;;;;;17.39;43.22;103911.63;5079576;28;19959;-47
2022/01/12 09:44:50;;;;;;;;;;;;;;;17.39;43.27;103909.81;5067597;28;19970;-44
2022/01/12 09:47:16;;;;;;;;;;;;;;;17.41;43.20;103913.25;5067474;28;19980;-45
2022/01/12 09:49:42;;;;;;;;;;;;;;;17.43;43.37;103916.75;5062884;28;19980;-45
2022/01/12 09:52:07;;;;;;;;;;;;;;;17.45;43.04;103920.19;5076649;28;19912;-46
2022/01/12 09:54:32;;;;;;;;;;;;;;;17.46;43.35;103911.19;5082935;28;19922;-43
2022/01/12 09:56:57;;;;;;;;;;;;;;;17.49;43.39;103923.59;5076820;28;19916;-45
2022/01/12 09:59:23;;;;;;;;;;;;;;;17.51;43.28;103920.84;5082347;28;20319;-45
2022/01/12 10:01:48;;;;;;;;;;;;;;;17.54;43.33;103917.94;5082208;28;19912;-43
2022/01/12 10:04:17;;;;;;;;;;;;;;;17.55;43.41;103925.97;5082960;28;20030;-48
2022/01/12 10:06:47;;;;;;;;;;;;;;;17.56;43.17;103924.13;5082489;28;19916;-46
2022/01/12 10:09:15;;;;;;;;;;;;;;;17.58;43.31;103916.81;5082975;28;19913;-46
2022/01/12 10:11:54;;;;;;;;;;;;;;;17.60;43.36;103923.00;5062824;28;19913;-44
2022/01/12 10:14:19;;;;;;;;;;;;;;;17.61;43.34;103922.91;5075833;28;19920;-43
2022/01/12 10:16:54;;;;;;;;;;;;;;;17.62;43.25;103918.38;5082189;28;19939;-47
2022/01/12 10:19:26;;;;;;;;;;;;;;;17.64;43.19;103932.63;5082774;28;19916;-44
2022/01/12 10:21:52;;;;;;;;;;;;;;;17.65;43.23;103929.84;5088502;28;19916;-45
2022/01/12 10:24:19;;;;;;;;;;;;;;;17.67;43.18;103925.25;5088927;28;19916;-44
2022/01/12 10:26:45;;;;;;;;;;;;;;;17.71;43.09;103921.44;5088796;28;19920;-46
2022/01/12 10:29:11;;;;;;;;;;;;;;;17.76;43.11;103928.44;5089477;28;19913;-44
2022/01/12 10:31:43;;;;;;;;;;;;;;;17.79;43.07;103925.53;5089016;28;19959;-46
2022/01/12 10:34:08;;;;;;;;;;;;;;;17.82;42.78;103923.53;5089284;28;19912;-45
2022/01/12 10:36:40;;;;;;;;;;;;;;;17.85;42.95;103931.44;5087832;28;19916;-47
2022/01/12 10:39:09;;;;;;;;;;;;;;;17.87;42.86;103934.91;5088720;28;19982;-47
2022/01/12 10:41:34;;;;;;;;;;;;;;;17.88;42.79;103933.06;5088609;28;19912;-50
2022/01/12 10:43:59;;;;;;;;;;;;;;;17.90;42.99;103933.88;5088488;28;20103;-42
2022/01/12 10:46:26;;;;;;;;;;;;;;;17.92;42.85;103932.81;5082661;28;19995;-49
2022/01/12 10:48:52;;;;;;;;;;;;;;;17.96;43.00;103928.13;5078182;28;20815;-46
2022/01/12 10:51:28;;;;;;;;;;;;;;;17.98;43.13;103935.16;5084198;28;19957;-47
2022/01/12 10:53:54;;;;;;;;;;;;;;;18.02;43.24;103932.31;5086150;28;19916;-41
2022/01/12 10:56:22;;;;;;;;;;;;;;;18.03;43.15;103929.50;5086476;28;19912;-45
2022/01/12 10:58:48;;;;;;;;;;;;;;;18.06;43.18;103937.41;5068722;28;20421;-46
2022/01/12 11:01:14;;;;;;;;;;;;;;;18.09;43.16;103930.97;5068738;28;20002;-48
2022/01/12 11:03:39;;;;;;;;;;;;;;;18.11;43.22;103939.84;5086671;28;19931;-50
2022/01/12 11:06:05;;;;;;;;;;;;;;;18.14;42.93;103936.97;5085471;28;19944;-45
2022/01/12 11:14:02;;;;;;;5.38;2.33;;;;;;;18.26;42.98;103927.28;5116209;27;1184722;-41
2022/01/12 11:16:28;;;;;;;4.43;2.03;;;;;;;18.25;43.31;103915.63;5138538;27;20347;-43
2022/01/12 11:18:54;;;;;;;5.72;2.88;;;;;;;18.22;43.20;103905.94;5138031;27;20042;-46
2022/01/12 11:21:48;;;;;;;4.28;2.53;;;;;;;18.28;42.97;103914.59;5132971;27;20031;-46
2022/01/12 11:24:15;;;;;;;3.85;2.60;;;;;;;18.27;42.87;103916.44;5120651;28;20034;-48
2022/01/12 11:26:54;;;;;;;4.82;2.80;;;;;;;18.26;43.07;103911.13;5136313;28;20043;-45
2022/01/12 11:29:27;;;;;;;3.95;2.70;;;;;;;18.24;42.86;103913.91;5135014;28;20034;-43
2022/01/12 11:32:07;;;;;;;4.13;2.65;;;;;;;18.25;42.91;103915.63;5140125;27;20066;-43
2022/01/12 11:34:32;;;;;;;5.50;3.13;;;;;;;18.27;42.73;103905.66;5140385;27;20143;-46
2022/01/12 11:36:57;;;;;;;6.03;2.50;;;;;;;18.32;42.90;103903.56;5139990;27;20023;-48
2022/01/12 11:39:23;;;;;;;4.72;2.42;;;;;;;18.35;42.73;103914.16;5140371;27;20029;-45
2022/01/12 11:41:48;;;;;;;3.42;2.28;;;;;;;18.37;42.52;103920.28;5140483;27;20028;-44
2022/01/12 11:44:16;;;;;;;5.20;2.60;;;;;;;18.40;42.34;103924.66;5130780;27;20476;-44
2022/01/12 11:46:45;;;;;;;3.58;2.20;;;;;;;18.40;42.37;103924.66;5140434;27;20027;-41
2022/01/12 11:49:11;;;;;;;3.60;2.47;;;;;;;18.32;42.31;103911.63;5139871;27;20019;-47
2022/01/12 11:51:41;;;;;;;4.60;2.58;;;;;;;18.37;42.47;103919.44;5137921;28;20016;-45
2022/01/12 11:54:08;;;;;;;3.35;2.20;;;;;;;18.37;42.61;103919.44;5140115;27;20079;-47
2022/01/12 11:56:33;;;;;;;5.43;2.97;;;;;;;18.40;42.91;103912.03;5140323;27;20035;-44
2022/01/12 11:59:06;;;;;;;3.78;2.40;;;;;;;18.45;42.71;103911.75;5139488;27;20023;-46
2022/01/12 12:01:37;;;;;;;5.13;2.65;;;;;;;18.41;42.71;103896.75;5139973;27;20027;-43
2022/01/12 12:04:04;;;;;;;4.45;2.45;;;;;;;18.51;42.90;103910.50;5139772;27;20028;-45
2022/01/12 12:06:29;;;;;;;4.35;2.00;;;;;;;18.54;42.54;103902.25;5139381;27;20107;-42
2022/01/12 12:09:01;;;;;;;4.53;2.00;;;;;;;18.58;42.63;103909.19;5137069;27;20027;-43
2022/01/12 12:11:28;;;;;;;3.95;2.30;;;;;;;18.58;42.31;103899.28;5121329;27;20038;-44
2022/01/12 12:13:58;;;;;;;4.55;2.35;;;;;;;18.59;42.24;103882.13;5120652;28;20656;-44
2022/01/12 12:16:24;;;;;;;3.28;1.90;;;;;;;18.60;42.50;103880.31;5128733;28;20099;-40
2022/01/12 12:18:49;;;;;;;4.15;2.88;;;;;;;18.63;42.57;103890.91;5128209;27;20031;-44
2022/01/12 12:21:15;;;;;;;4.07;2.40;;;;;;;18.60;42.44;103874.91;5129016;28;20200;-45
2022/01/12 12:23:40;;;;;;;3.33;1.90;;;;;;;18.66;42.77;103880.81;5132670;28;20057;-45
2022/01/12 12:26:07;;;;;;;3.92;2.10;;;;;;;18.69;42.50;103883.34;5122407;28;20027;-45
2022/01/12 12:28:33;;;;;;;8.05;3.42;;;;;;;18.67;42.35;103882.53;5118189;28;20027;-45
2022/01/12 12:30:58;;;;;;;4.88;2.30;;;;;;;18.77;42.42;103882.00;5095604;28;20084;-46
2022/01/12 12:33:23;;;;;;;4.32;2.35;;;;;;;18.76;42.33;103888.34;5118408;28;20031;-42
2022/01/12 12:35:49;;;;;;;3.53;2.05;;;;;;;18.86;42.17;103900.28;5120642;28;20019;-51
2022/01/12 12:38:17;;;;;;;5.60;2.28;;;;;;;18.89;42.22;103902.78;5123059;28;20164;-41
2022/01/12 12:40:50;;;;;;;3.15;2.00;;;;;;;18.90;42.15;103899.13;5123269;28;20019;-41
2022/01/12 12:43:24;;;;;;;4.10;2.40;;;;;;;18.92;41.99;103899.91;5122785;27;20095;-43
2022/01/12 12:45:52;;;;;;;5.50;2.30;;;;;;;18.88;42.25;103892.97;5120988;28;20058;-46
2022/01/12 12:48:25;;;;;;;4.53;1.93;;;;;;;18.97;41.99;103905.88;5123060;28;20118;-47
2022/01/12 12:50:59;;;;;;;6.00;2.17;;;;;;;18.97;41.88;103898.66;5117146;28;20036;-43
2022/01/12 12:53:29;;;;;;;3.70;2.00;;;;;;;18.97;41.96;103897.78;5117873;28;20125;-46
2022/01/12 12:55:54;;;;;;;3.92;2.22;;;;;;;18.97;42.01;103898.66;5117569;28;20035;-40
2022/01/12 12:58:20;;;;;;;3.63;2.00;;;;;;;18.95;41.98;103897.03;5122442;28;20027;-39
2022/01/12 13:00:45;;;;;;;3.50;2.50;;;;;;;18.91;42.13;103890.09;5122296;28;21136;-42
2022/01/12 13:03:10;;;;;;;5.28;2.10;;;;;;;18.98;41.98;103904.91;5118589;28;20035;-44
2022/01/12 13:05:42;;;;;;;7.30;2.35;;;;;;;18.94;42.16;103895.28;5119863;28;20065;-43
2022/01/12 13:08:09;;;;;;;2.97;1.98;;;;;;;18.94;41.99;103900.66;5119846;28;20058;-43
2022/01/12 13:10:35;;;;;;;5.32;2.83;;;;;;;18.95;41.92;103902.44;5117882;28;20016;-44
2022/01/12 13:13:04;;;;;;;3.17;2.30;;;;;;;18.90;42.01;103891.03;5115965;28;20051;-41
2022/01/12 13:15:35;;;;;;;4.22;2.28;;;;;;;18.93;42.18;103904.34;5120525;28;20038;-48
2022/01/12 13:18:04;;;;;;;4.72;2.53;;;;;;;18.90;42.01;103899.13;5109516;28;20275;-47
2022/01/12 13:23:14;;;;;;;5.63;2.47;;;;;;;18.91;42.23;103895.50;5119561;28;19929;-45
2022/01/12 13:25:39;;;;;;;4.10;2.25;;;;;;;18.96;42.43;103896.06;5122070;28;20065;-42
2022/01/12 13:28:05;;;;;;;4.68;2.53;;;;;;;18.93;42.22;103893.56;5094845;28;20019;-40
2022/01/12 13:30:32;;;;;;;3.30;2.08;;;;;;;18.95;42.32;103899.72;5121619;28;20023;-46
2022/01/12 13:32:59;;;;;;;4.05;1.98;;;;;;;18.96;42.38;103899.63;5114648;28;20031;-40
2022/01/12 13:35:34;;;;;;;3.47;1.98;;;;;;;18.96;42.56;103910.41;5110618;28;20034;-44
2022/01/12 13:38:01;;;;;;;5.93;1.95;;;;;;;19.00;42.54;103904.84;5118268;28;20027;-46
2022/01/12 13:40:35;;;;;;;2.53;1.70;;;;;;;18.97;42.35;103909.44;5120823;28;20104;-42
2022/01/12 13:43:00;;;;;;;4.75;2.45;;;;;;;19.07;42.69;103919.66;5115674;28;20043;-48
2022/01/12 13:45:43;;;;;;;5.50;1.88;;;;;;;19.11;42.21;103918.50;5121408;28;20038;-44
2022/01/12 13:48:14;;;;;;;3.65;1.90;;;;;;;19.11;42.29;103921.19;5121744;28;20024;-43
2022/01/12 13:51:05;;;;;;;4.15;2.40;;;;;;;19.11;42.16;103913.09;5113014;28;20520;-44